sensor_id;sensor_type;location;lat;lon;timestamp;P1;durP1;ratioP1;P2;durP2;ratioP2
5491;SDS011;2768;53.540;10.224;2022-07-10T00:02:58;4.00;;;1.10;;
5491;SDS011;2768;53.540;10.224;2022-07-10T00:08:53;5.27;;;0.70;;
5491;SDS011;2768;53.540;10.224;2022-07-10T00:14:46;2.40;;;1.07;;
5491;SDS011;2768;53.540;10.224;2022-07-10T00:20:39;3.03;;;0.87;;
5491;SDS011;2768;53.540;10.224;2022-07-10T00:26:34;2.40;;;0.90;;
5491;SDS011;2768;53.540;10.224;2022-07-10T00:32:27;7.60;;;1.43;;
5491;SDS011;2768;53.540;10.224;2022-07-10T00:38:20;8.57;;;1.37;;
5491;SDS011;2768;53.540;10.224;2022-07-10T00:44:14;3.77;;;1.47;;
5491;SDS011;2768;53.540;10.224;2022-07-10T00:50:07;4.73;;;1.20;;
5491;SDS011;2768;53.540;10.224;2022-07-10T00:56:01;6.43;;;1.23;;
5491;SDS011;2768;53.540;10.224;2022-07-10T01:01:55;2.40;;;1.00;;
5491;SDS011;2768;53.540;10.224;2022-07-10T01:07:49;2.17;;;1.00;;
5491;SDS011;2768;53.540;10.224;2022-07-10T01:13:42;3.90;;;1.37;;
5491;SDS011;2768;53.540;10.224;2022-07-10T01:19:37;3.53;;;1.20;;
5491;SDS011;2768;53.540;10.224;2022-07-10T01:25:31;4.37;;;1.43;;
5491;SDS011;2768;53.540;10.224;2022-07-10T01:31:25;5.90;;;1.50;;
5491;SDS011;2768;53.540;10.224;2022-07-10T01:37:18;4.10;;;1.80;;
5491;SDS011;2768;53.540;10.224;2022-07-10T01:43:13;2.97;;;0.97;;
5491;SDS011;2768;53.540;10.224;2022-07-10T01:49:06;3.67;;;1.60;;
5491;SDS011;2768;53.540;10.224;2022-07-10T01:54:59;5.33;;;1.77;;
5491;SDS011;2768;53.540;10.224;2022-07-10T02:00:53;2.70;;;0.90;;
5491;SDS011;2768;53.540;10.224;2022-07-10T02:06:46;3.43;;;1.20;;
5491;SDS011;2768;53.540;10.224;2022-07-10T02:12:39;2.40;;;1.10;;
5491;SDS011;2768;53.540;10.224;2022-07-10T02:18:34;6.43;;;1.63;;
5491;SDS011;2768;53.540;10.224;2022-07-10T02:24:27;7.50;;;1.20;;
5491;SDS011;2768;53.540;10.224;2022-07-10T02:30:21;4.67;;;1.50;;
5491;SDS011;2768;53.540;10.224;2022-07-10T02:36:15;4.40;;;1.33;;
5491;SDS011;2768;53.540;10.224;2022-07-10T02:42:08;3.93;;;1.47;;
5491;SDS011;2768;53.540;10.224;2022-07-10T02:48:01;5.60;;;2.00;;
5491;SDS011;2768;53.540;10.224;2022-07-10T02:53:55;7.00;;;1.93;;
5491;SDS011;2768;53.540;10.224;2022-07-10T02:59:49;3.63;;;1.23;;
5491;SDS011;2768;53.540;10.224;2022-07-10T03:05:42;6.77;;;1.63;;
5491;SDS011;2768;53.540;10.224;2022-07-10T03:11:37;7.20;;;1.80;;
5491;SDS011;2768;53.540;10.224;2022-07-10T03:17:30;4.00;;;1.40;;
5491;SDS011;2768;53.540;10.224;2022-07-10T03:23:23;7.83;;;1.40;;
5491;SDS011;2768;53.540;10.224;2022-07-10T03:29:18;6.97;;;1.83;;
5491;SDS011;2768;53.540;10.224;2022-07-10T03:35:13;7.40;;;1.80;;
5491;SDS011;2768;53.540;10.224;2022-07-10T03:41:06;7.80;;;1.77;;
5491;SDS011;2768;53.540;10.224;2022-07-10T03:47:00;8.80;;;1.80;;
5491;SDS011;2768;53.540;10.224;2022-07-10T03:52:54;8.20;;;2.27;;
5491;SDS011;2768;53.540;10.224;2022-07-10T03:58:47;6.40;;;1.80;;
5491;SDS011;2768;53.540;10.224;2022-07-10T04:04:41;8.20;;;2.63;;
5491;SDS011;2768;53.540;10.224;2022-07-10T04:10:34;8.77;;;2.93;;
5491;SDS011;2768;53.540;10.224;2022-07-10T04:16:28;8.23;;;3.10;;
5491;SDS011;2768;53.540;10.224;2022-07-10T04:22:22;8.30;;;2.10;;
5491;SDS011;2768;53.540;10.224;2022-07-10T04:28:15;9.17;;;2.70;;
5491;SDS011;2768;53.540;10.224;2022-07-10T04:34:08;7.63;;;2.60;;
5491;SDS011;2768;53.540;10.224;2022-07-10T04:40:03;10.13;;;2.90;;
5491;SDS011;2768;53.540;10.224;2022-07-10T04:45:57;7.60;;;1.90;;
5491;SDS011;2768;53.540;10.224;2022-07-10T04:51:50;9.10;;;2.40;;
5491;SDS011;2768;53.540;10.224;2022-07-10T04:57:44;10.60;;;2.93;;
5491;SDS011;2768;53.540;10.224;2022-07-10T05:03:37;7.93;;;2.37;;
5491;SDS011;2768;53.540;10.224;2022-07-10T05:09:30;11.10;;;2.80;;
5491;SDS011;2768;53.540;10.224;2022-07-10T05:15:24;11.03;;;2.87;;
5491;SDS011;2768;53.540;10.224;2022-07-10T05:21:17;18.27;;;3.37;;
5491;SDS011;2768;53.540;10.224;2022-07-10T05:27:10;10.33;;;2.80;;
5491;SDS011;2768;53.540;10.224;2022-07-10T05:33:05;11.60;;;2.63;;
5491;SDS011;2768;53.540;10.224;2022-07-10T05:38:58;12.50;;;3.13;;
5491;SDS011;2768;53.540;10.224;2022-07-10T05:44:51;8.20;;;2.60;;
5491;SDS011;2768;53.540;10.224;2022-07-10T05:50:45;9.10;;;2.80;;
5491;SDS011;2768;53.540;10.224;2022-07-10T05:56:38;20.23;;;4.30;;
5491;SDS011;2768;53.540;10.224;2022-07-10T06:02:31;22.70;;;2.90;;
5491;SDS011;2768;53.540;10.224;2022-07-10T06:08:25;12.03;;;3.17;;
5491;SDS011;2768;53.540;10.224;2022-07-10T06:14:18;11.97;;;3.10;;
5491;SDS011;2768;53.540;10.224;2022-07-10T06:20:11;14.90;;;3.53;;
5491;SDS011;2768;53.540;10.224;2022-07-10T06:26:06;11.10;;;2.80;;
5491;SDS011;2768;53.540;10.224;2022-07-10T06:31:59;6.90;;;2.47;;
5491;SDS011;2768;53.540;10.224;2022-07-10T06:37:52;8.70;;;3.10;;
5491;SDS011;2768;53.540;10.224;2022-07-10T06:43:46;12.50;;;2.50;;
5491;SDS011;2768;53.540;10.224;2022-07-10T06:49:39;11.53;;;3.20;;
5491;SDS011;2768;53.540;10.224;2022-07-10T06:55:32;10.40;;;2.13;;
5491;SDS011;2768;53.540;10.224;2022-07-10T07:01:27;6.17;;;2.43;;
5491;SDS011;2768;53.540;10.224;2022-07-10T07:07:20;15.03;;;2.20;;
5491;SDS011;2768;53.540;10.224;2022-07-10T07:13:16;15.03;;;2.20;;
5491;SDS011;2768;53.540;10.224;2022-07-10T07:19:10;9.93;;;2.30;;
5491;SDS011;2768;53.540;10.224;2022-07-10T07:25:09;11.57;;;2.10;;
5491;SDS011;2768;53.540;10.224;2022-07-10T07:31:03;8.30;;;1.77;;
5491;SDS011;2768;53.540;10.224;2022-07-10T07:37:04;11.47;;;2.60;;
5491;SDS011;2768;53.540;10.224;2022-07-10T07:42:57;12.43;;;2.40;;
5491;SDS011;2768;53.540;10.224;2022-07-10T07:48:50;10.50;;;2.00;;
5491;SDS011;2768;53.540;10.224;2022-07-10T07:54:45;6.47;;;1.63;;
5491;SDS011;2768;53.540;10.224;2022-07-10T08:00:38;13.83;;;3.23;;
5491;SDS011;2768;53.540;10.224;2022-07-10T08:06:31;7.33;;;2.30;;
5491;SDS011;2768;53.540;10.224;2022-07-10T08:12:25;8.90;;;1.73;;
5491;SDS011;2768;53.540;10.224;2022-07-10T08:18:18;7.93;;;1.90;;
5491;SDS011;2768;53.540;10.224;2022-07-10T08:24:11;8.30;;;2.20;;
5491;SDS011;2768;53.540;10.224;2022-07-10T08:30:08;10.70;;;2.47;;
5491;SDS011;2768;53.540;10.224;2022-07-10T08:36:02;7.33;;;1.60;;
5491;SDS011;2768;53.540;10.224;2022-07-10T08:42:16;7.63;;;2.07;;
5491;SDS011;2768;53.540;10.224;2022-07-10T08:48:12;7.03;;;2.00;;
5491;SDS011;2768;53.540;10.224;2022-07-10T08:54:06;7.70;;;1.57;;
5491;SDS011;2768;53.540;10.224;2022-07-10T09:00:00;8.57;;;2.20;;
5491;SDS011;2768;53.540;10.224;2022-07-10T09:05:55;6.33;;;1.80;;
5491;SDS011;2768;53.540;10.224;2022-07-10T09:11:48;4.10;;;1.23;;
5491;SDS011;2768;53.540;10.224;2022-07-10T09:17:50;6.47;;;1.80;;
5491;SDS011;2768;53.540;10.224;2022-07-10T09:23:46;4.47;;;1.40;;
5491;SDS011;2768;53.540;10.224;2022-07-10T09:29:46;3.63;;;1.40;;
5491;SDS011;2768;53.540;10.224;2022-07-10T09:35:53;7.43;;;1.23;;
5491;SDS011;2768;53.540;10.224;2022-07-10T09:42:01;4.60;;;1.77;;
5491;SDS011;2768;53.540;10.224;2022-07-10T09:47:55;10.50;;;1.90;;
5491;SDS011;2768;53.540;10.224;2022-07-10T09:53:53;9.40;;;1.90;;
5491;SDS011;2768;53.540;10.224;2022-07-10T09:59:49;6.93;;;1.90;;
5491;SDS011;2768;53.540;10.224;2022-07-10T10:05:43;7.77;;;1.90;;
5491;SDS011;2768;53.540;10.224;2022-07-10T10:11:37;4.20;;;1.20;;
5491;SDS011;2768;53.540;10.224;2022-07-10T10:17:37;6.43;;;2.17;;
5491;SDS011;2768;53.540;10.224;2022-07-10T10:23:33;8.47;;;1.83;;
5491;SDS011;2768;53.540;10.224;2022-07-10T10:29:27;5.83;;;2.20;;
5491;SDS011;2768;53.540;10.224;2022-07-10T10:41:38;7.37;;;1.57;;
5491;SDS011;2768;53.540;10.224;2022-07-10T10:47:38;11.30;;;2.17;;
5491;SDS011;2768;53.540;10.224;2022-07-10T10:54:10;5.80;;;1.90;;
5491;SDS011;2768;53.540;10.224;2022-07-10T11:00:04;6.30;;;1.90;;
5491;SDS011;2768;53.540;10.224;2022-07-10T11:05:59;7.90;;;1.60;;
5491;SDS011;2768;53.540;10.224;2022-07-10T11:12:05;3.13;;;1.30;;
5491;SDS011;2768;53.540;10.224;2022-07-10T11:18:02;3.80;;;1.13;;
5491;SDS011;2768;53.540;10.224;2022-07-10T11:23:56;7.50;;;1.43;;
5491;SDS011;2768;53.540;10.224;2022-07-10T11:30:00;4.43;;;1.00;;
5491;SDS011;2768;53.540;10.224;2022-07-10T11:35:53;4.03;;;1.70;;
5491;SDS011;2768;53.540;10.224;2022-07-10T11:41:46;2.60;;;1.40;;
5491;SDS011;2768;53.540;10.224;2022-07-10T11:47:41;3.97;;;1.57;;
5491;SDS011;2768;53.540;10.224;2022-07-10T11:53:34;6.87;;;1.60;;
5491;SDS011;2768;53.540;10.224;2022-07-10T11:59:27;4.33;;;1.30;;
5491;SDS011;2768;53.540;10.224;2022-07-10T12:05:30;6.27;;;1.43;;
5491;SDS011;2768;53.540;10.224;2022-07-10T12:11:24;2.40;;;1.50;;
5491;SDS011;2768;53.540;10.224;2022-07-10T12:17:17;3.73;;;1.40;;
5491;SDS011;2768;53.540;10.224;2022-07-10T12:23:12;2.83;;;1.57;;
5491;SDS011;2768;53.540;10.224;2022-07-10T12:29:11;4.80;;;1.50;;
5491;SDS011;2768;53.540;10.224;2022-07-10T12:35:10;5.13;;;1.60;;
5491;SDS011;2768;53.540;10.224;2022-07-10T12:41:08;5.70;;;1.53;;
5491;SDS011;2768;53.540;10.224;2022-07-10T12:47:02;3.53;;;1.60;;
5491;SDS011;2768;53.540;10.224;2022-07-10T12:53:06;5.33;;;1.20;;
5491;SDS011;2768;53.540;10.224;2022-07-10T12:59:02;2.97;;;1.30;;
5491;SDS011;2768;53.540;10.224;2022-07-10T13:05:02;4.53;;;1.40;;
5491;SDS011;2768;53.540;10.224;2022-07-10T13:10:56;4.10;;;1.20;;
5491;SDS011;2768;53.540;10.224;2022-07-10T13:16:51;5.10;;;1.40;;
5491;SDS011;2768;53.540;10.224;2022-07-10T13:22:44;7.40;;;1.60;;
5491;SDS011;2768;53.540;10.224;2022-07-10T13:28:37;3.73;;;1.17;;
5491;SDS011;2768;53.540;10.224;2022-07-10T13:34:32;4.63;;;1.27;;
5491;SDS011;2768;53.540;10.224;2022-07-10T13:40:25;6.17;;;1.60;;
5491;SDS011;2768;53.540;10.224;2022-07-10T13:46:18;4.10;;;1.87;;
5491;SDS011;2768;53.540;10.224;2022-07-10T13:52:13;5.80;;;1.70;;
5491;SDS011;2768;53.540;10.224;2022-07-10T13:58:06;5.90;;;1.07;;
5491;SDS011;2768;53.540;10.224;2022-07-10T14:04:00;5.20;;;1.50;;
5491;SDS011;2768;53.540;10.224;2022-07-10T14:09:54;6.47;;;1.60;;
5491;SDS011;2768;53.540;10.224;2022-07-10T14:15:48;5.33;;;1.47;;
5491;SDS011;2768;53.540;10.224;2022-07-10T14:21:41;6.60;;;1.53;;
5491;SDS011;2768;53.540;10.224;2022-07-10T14:27:35;6.83;;;1.77;;
5491;SDS011;2768;53.540;10.224;2022-07-10T14:33:28;4.57;;;1.40;;
5491;SDS011;2768;53.540;10.224;2022-07-10T14:39:22;4.83;;;1.20;;
5491;SDS011;2768;53.540;10.224;2022-07-10T14:45:16;7.00;;;1.93;;
5491;SDS011;2768;53.540;10.224;2022-07-10T14:51:29;5.50;;;1.40;;
5491;SDS011;2768;53.540;10.224;2022-07-10T14:57:22;2.93;;;1.10;;
5491;SDS011;2768;53.540;10.224;2022-07-10T15:03:17;3.33;;;1.23;;
5491;SDS011;2768;53.540;10.224;2022-07-10T15:09:10;6.57;;;1.63;;
5491;SDS011;2768;53.540;10.224;2022-07-10T15:15:03;2.93;;;1.33;;
5491;SDS011;2768;53.540;10.224;2022-07-10T15:21:00;3.93;;;1.80;;
5491;SDS011;2768;53.540;10.224;2022-07-10T15:26:54;7.03;;;1.40;;
5491;SDS011;2768;53.540;10.224;2022-07-10T15:32:47;5.83;;;1.00;;
5491;SDS011;2768;53.540;10.224;2022-07-10T15:38:42;7.20;;;1.20;;
5491;SDS011;2768;53.540;10.224;2022-07-10T15:44:35;1.90;;;0.90;;
5491;SDS011;2768;53.540;10.224;2022-07-10T15:50:28;4.80;;;1.40;;
5491;SDS011;2768;53.540;10.224;2022-07-10T15:56:27;5.03;;;1.77;;
5491;SDS011;2768;53.540;10.224;2022-07-10T16:02:19;6.43;;;1.30;;
5491;SDS011;2768;53.540;10.224;2022-07-10T16:08:13;4.43;;;1.37;;
5491;SDS011;2768;53.540;10.224;2022-07-10T16:14:07;6.93;;;2.07;;
5491;SDS011;2768;53.540;10.224;2022-07-10T16:20:01;6.40;;;1.33;;
5491;SDS011;2768;53.540;10.224;2022-07-10T16:25:54;5.93;;;1.10;;
5491;SDS011;2768;53.540;10.224;2022-07-10T16:31:53;3.77;;;1.50;;
5491;SDS011;2768;53.540;10.224;2022-07-10T16:37:48;5.80;;;1.43;;
5491;SDS011;2768;53.540;10.224;2022-07-10T16:43:42;4.40;;;1.13;;
5491;SDS011;2768;53.540;10.224;2022-07-10T16:49:37;5.70;;;1.10;;
5491;SDS011;2768;53.540;10.224;2022-07-10T16:55:30;4.13;;;1.50;;
5491;SDS011;2768;53.540;10.224;2022-07-10T17:01:23;6.27;;;1.20;;
5491;SDS011;2768;53.540;10.224;2022-07-10T17:07:17;3.80;;;1.27;;
5491;SDS011;2768;53.540;10.224;2022-07-10T17:13:10;4.83;;;1.33;;
5491;SDS011;2768;53.540;10.224;2022-07-10T17:19:04;7.37;;;1.33;;
5491;SDS011;2768;53.540;10.224;2022-07-10T17:24:59;3.20;;;1.20;;
5491;SDS011;2768;53.540;10.224;2022-07-10T17:30:52;5.03;;;1.37;;
5491;SDS011;2768;53.540;10.224;2022-07-10T17:36:45;3.20;;;1.20;;
5491;SDS011;2768;53.540;10.224;2022-07-10T17:42:39;4.47;;;1.47;;
5491;SDS011;2768;53.540;10.224;2022-07-10T17:48:33;6.10;;;1.80;;
5491;SDS011;2768;53.540;10.224;2022-07-10T17:54:26;7.00;;;1.57;;
5491;SDS011;2768;53.540;10.224;2022-07-10T18:00:20;3.30;;;1.43;;
5491;SDS011;2768;53.540;10.224;2022-07-10T18:06:13;4.97;;;1.60;;
5491;SDS011;2768;53.540;10.224;2022-07-10T18:12:07;8.83;;;1.57;;
5491;SDS011;2768;53.540;10.224;2022-07-10T18:18:02;3.87;;;1.40;;
5491;SDS011;2768;53.540;10.224;2022-07-10T18:23:55;5.37;;;1.50;;
5491;SDS011;2768;53.540;10.224;2022-07-10T18:29:51;4.23;;;1.20;;
5491;SDS011;2768;53.540;10.224;2022-07-10T18:35:46;5.23;;;1.50;;
5491;SDS011;2768;53.540;10.224;2022-07-10T18:41:39;6.33;;;1.80;;
5491;SDS011;2768;53.540;10.224;2022-07-10T18:47:32;2.83;;;1.17;;
5491;SDS011;2768;53.540;10.224;2022-07-10T18:53:26;6.60;;;1.60;;
5491;SDS011;2768;53.540;10.224;2022-07-10T18:59:19;5.20;;;1.60;;
5491;SDS011;2768;53.540;10.224;2022-07-10T19:05:12;3.10;;;1.40;;
5491;SDS011;2768;53.540;10.224;2022-07-10T19:11:07;4.87;;;1.13;;
5491;SDS011;2768;53.540;10.224;2022-07-10T19:17:00;3.03;;;1.27;;
5491;SDS011;2768;53.540;10.224;2022-07-10T19:22:54;4.60;;;1.30;;
5491;SDS011;2768;53.540;10.224;2022-07-10T19:28:48;5.40;;;1.33;;
5491;SDS011;2768;53.540;10.224;2022-07-10T19:34:41;2.80;;;1.27;;
5491;SDS011;2768;53.540;10.224;2022-07-10T19:40:34;8.43;;;1.97;;
5491;SDS011;2768;53.540;10.224;2022-07-10T19:46:29;4.63;;;1.53;;
5491;SDS011;2768;53.540;10.224;2022-07-10T19:52:22;5.93;;;1.47;;
5491;SDS011;2768;53.540;10.224;2022-07-10T19:58:16;6.73;;;1.53;;
5491;SDS011;2768;53.540;10.224;2022-07-10T20:04:12;10.10;;;2.00;;
5491;SDS011;2768;53.540;10.224;2022-07-10T20:10:06;9.77;;;1.63;;
5491;SDS011;2768;53.540;10.224;2022-07-10T20:15:59;3.67;;;1.30;;
5491;SDS011;2768;53.540;10.224;2022-07-10T20:21:59;8.00;;;1.83;;
5491;SDS011;2768;53.540;10.224;2022-07-10T20:27:53;2.90;;;1.30;;
5491;SDS011;2768;53.540;10.224;2022-07-10T20:33:46;4.80;;;1.63;;
5491;SDS011;2768;53.540;10.224;2022-07-10T20:39:41;5.13;;;2.47;;
5491;SDS011;2768;53.540;10.224;2022-07-10T20:45:34;5.47;;;1.60;;
5491;SDS011;2768;53.540;10.224;2022-07-10T20:51:27;5.63;;;1.30;;
5491;SDS011;2768;53.540;10.224;2022-07-10T20:57:21;10.50;;;1.60;;
5491;SDS011;2768;53.540;10.224;2022-07-10T21:03:14;5.90;;;1.70;;
5491;SDS011;2768;53.540;10.224;2022-07-10T21:09:08;4.90;;;2.10;;
5491;SDS011;2768;53.540;10.224;2022-07-10T21:15:03;3.83;;;1.33;;
5491;SDS011;2768;53.540;10.224;2022-07-10T21:20:56;6.40;;;1.73;;
5491;SDS011;2768;53.540;10.224;2022-07-10T21:26:49;5.03;;;1.47;;
5491;SDS011;2768;53.540;10.224;2022-07-10T21:32:44;5.80;;;1.40;;
5491;SDS011;2768;53.540;10.224;2022-07-10T21:38:37;3.50;;;1.37;;
5491;SDS011;2768;53.540;10.224;2022-07-10T21:44:31;8.63;;;1.60;;
5491;SDS011;2768;53.540;10.224;2022-07-10T21:50:26;3.40;;;1.23;;
5491;SDS011;2768;53.540;10.224;2022-07-10T21:56:19;5.00;;;1.87;;
5491;SDS011;2768;53.540;10.224;2022-07-10T22:02:12;5.77;;;1.70;;
5491;SDS011;2768;53.540;10.224;2022-07-10T22:08:07;4.20;;;1.43;;
5491;SDS011;2768;53.540;10.224;2022-07-10T22:14:00;5.47;;;1.60;;
5491;SDS011;2768;53.540;10.224;2022-07-10T22:19:53;4.83;;;1.60;;
5491;SDS011;2768;53.540;10.224;2022-07-10T22:25:47;4.90;;;1.40;;
5491;SDS011;2768;53.540;10.224;2022-07-10T22:31:40;4.40;;;1.57;;
5491;SDS011;2768;53.540;10.224;2022-07-10T22:37:33;4.63;;;1.33;;
5491;SDS011;2768;53.540;10.224;2022-07-10T22:43:27;5.60;;;2.00;;
5491;SDS011;2768;53.540;10.224;2022-07-10T22:49:21;7.57;;;1.80;;
5491;SDS011;2768;53.540;10.224;2022-07-10T22:55:14;3.67;;;2.10;;
5491;SDS011;2768;53.540;10.224;2022-07-10T23:01:08;6.73;;;1.83;;
5491;SDS011;2768;53.540;10.224;2022-07-10T23:07:02;3.53;;;2.20;;
5491;SDS011;2768;53.540;10.224;2022-07-10T23:12:55;2.70;;;1.53;;
5491;SDS011;2768;53.540;10.224;2022-07-10T23:18:50;2.33;;;1.40;;
5491;SDS011;2768;53.540;10.224;2022-07-10T23:24:43;4.17;;;2.10;;
5491;SDS011;2768;53.540;10.224;2022-07-10T23:30:36;4.90;;;2.23;;
5491;SDS011;2768;53.540;10.224;2022-07-10T23:36:30;6.83;;;2.30;;
5491;SDS011;2768;53.540;10.224;2022-07-10T23:42:23;7.03;;;2.63;;
5491;SDS011;2768;53.540;10.224;2022-07-10T23:48:16;2.53;;;1.70;;
5491;SDS011;2768;53.540;10.224;2022-07-10T23:54:31;4.93;;;2.17;;
